createdAt,value
2018-11-03T00:01:17.620Z,73.05
2018-11-03T00:03:45.793Z,73.13
2018-11-03T00:06:14.009Z,72.81
2018-11-03T00:08:42.234Z,72.03
2018-11-03T00:11:10.416Z,72.51
2018-11-03T00:13:38.583Z,73.35
2018-11-03T00:16:06.830Z,73.26
2018-11-03T00:18:34.960Z,73.20
2018-11-03T00:21:03.430Z,73.55
2018-11-03T00:23:31.665Z,73.10
2018-11-03T00:25:59.782Z,73.23
2018-11-03T00:28:27.935Z,73.12
2018-11-03T00:30:56.092Z,73.04
2018-11-03T00:33:25.147Z,72.75
2018-11-03T00:35:54.084Z,72.91
2018-11-03T00:38:22.278Z,73.22
2018-11-03T00:40:51.151Z,73.23
2018-11-03T00:43:20.284Z,73.21
2018-11-03T00:45:48.440Z,72.97
2018-11-03T00:48:16.816Z,72.78
2018-11-03T00:50:44.957Z,73.53
2018-11-03T00:53:13.769Z,73.17
2018-11-03T00:55:41.884Z,73.65
2018-11-03T00:58:09.973Z,73.49
2018-11-03T01:00:38.167Z,73.64
2018-11-03T01:03:06.353Z,73.78
2018-11-03T01:05:35.461Z,73.62
2018-11-03T01:08:10.474Z,73.33
2018-11-03T01:10:38.581Z,73.65
2018-11-03T01:13:06.743Z,73.87
2018-11-03T01:15:34.847Z,73.63
2018-11-03T01:18:03.015Z,74.81
2018-11-03T01:20:31.143Z,74.57
2018-11-03T01:22:59.275Z,75.25
2018-11-03T01:25:27.431Z,74.29
2018-11-03T01:27:55.567Z,75.04
2018-11-03T01:30:23.701Z,74.01
2018-11-03T01:32:51.831Z,74.73
2018-11-03T01:35:19.959Z,74.32
2018-11-03T01:37:48.109Z,74.40
2018-11-03T01:40:16.239Z,73.96
2018-11-03T01:42:44.398Z,74.24
2018-11-03T01:45:12.983Z,74.13
2018-11-03T01:47:41.167Z,74.18
2018-11-03T01:50:10.988Z,74.29
2018-11-03T01:52:40.668Z,74.05
2018-11-03T01:55:08.855Z,74.09
2018-11-03T01:57:37.657Z,75.11
2018-11-03T02:00:07.214Z,74.68
2018-11-03T02:02:35.335Z,74.73
2018-11-03T02:05:03.512Z,75.23
2018-11-03T02:07:32.189Z,75.11
2018-11-03T02:10:01.010Z,75.65
2018-11-03T02:12:29.168Z,76.08
2018-11-03T02:14:57.277Z,75.05
2018-11-03T02:17:25.424Z,75.67
2018-11-03T02:19:53.596Z,75.68
2018-11-03T02:22:21.663Z,75.40
2018-11-03T02:24:50.118Z,75.23
2018-11-03T02:27:18.184Z,76.14
2018-11-03T02:29:46.348Z,75.64
2018-11-03T02:32:14.461Z,76.25
2018-11-03T02:34:42.623Z,75.85
2018-11-03T02:37:11.496Z,76.19
2018-11-03T02:39:39.652Z,75.96
2018-11-03T02:42:08.596Z,76.69
2018-11-03T02:44:36.885Z,76.40
2018-11-03T02:47:05.743Z,76.72
2018-11-03T02:49:34.448Z,77.38
2018-11-03T02:52:03.157Z,76.70
2018-11-03T02:54:31.310Z,76.98
2018-11-03T02:56:59.462Z,76.69
2018-11-03T02:59:27.608Z,76.79
2018-11-03T03:01:55.708Z,76.52
2018-11-03T03:04:23.889Z,76.83
2018-11-03T03:06:52.005Z,76.77
2018-11-03T03:09:20.157Z,76.74
2018-11-03T03:11:48.270Z,76.38
2018-11-03T03:14:17.159Z,76.92
2018-11-03T03:16:45.269Z,76.24
2018-11-03T03:19:13.499Z,76.33
2018-11-03T03:21:41.643Z,76.58
2018-11-03T03:24:10.791Z,76.40
2018-11-03T03:26:39.023Z,76.64
2018-11-03T03:29:07.881Z,76.78
2018-11-03T03:31:36.654Z,77.33
2018-11-03T03:34:04.998Z,77.91
2018-11-03T03:36:33.728Z,78.10
2018-11-03T03:39:02.749Z,77.41
2018-11-03T03:41:31.068Z,77.65
2018-11-03T03:43:59.198Z,77.23
2018-11-03T03:46:27.345Z,77.58
2018-11-03T03:48:55.467Z,77.89
2018-11-03T03:51:23.661Z,77.74
2018-11-03T03:53:51.762Z,77.50
2018-11-03T03:56:19.888Z,77.28
2018-11-03T03:58:48.013Z,77.52
2018-11-03T04:01:16.182Z,77.03
2018-11-03T04:03:44.428Z,77.34
2018-11-03T04:06:13.624Z,77.10
2018-11-03T04:08:42.559Z,77.80
2018-11-03T04:11:11.168Z,77.35
2018-11-03T04:13:39.288Z,76.78
2018-11-03T04:16:07.446Z,77.36
2018-11-03T04:18:36.001Z,77.60
2018-11-03T04:21:04.250Z,77.77
2018-11-03T04:23:32.371Z,78.26
2018-11-03T04:26:00.491Z,78.27
2018-11-03T04:28:28.634Z,78.14
2018-11-03T04:30:56.841Z,78.60
2018-11-03T04:33:25.084Z,77.94
2018-11-03T04:35:53.370Z,77.69
2018-11-03T04:38:21.979Z,78.44
2018-11-03T04:40:50.141Z,78.17
2018-11-03T04:43:18.270Z,78.16
2018-11-03T04:45:46.677Z,77.81
2018-11-03T04:48:14.776Z,77.75
2018-11-03T04:50:42.924Z,78.00
2018-11-03T04:53:11.094Z,76.52
2018-11-03T04:55:39.253Z,76.87
2018-11-03T04:58:07.425Z,77.35
2018-11-03T05:00:35.557Z,77.29
2018-11-03T05:03:04.335Z,77.66
2018-11-03T05:05:32.435Z,77.98
2018-11-03T05:08:01.553Z,78.00
2018-11-03T05:10:30.305Z,77.71
2018-11-03T05:12:59.387Z,77.97
2018-11-03T05:15:27.751Z,78.06
2018-11-03T05:17:55.887Z,78.16
2018-11-03T05:20:24.080Z,78.27
2018-11-03T05:22:52.198Z,77.28
2018-11-03T05:25:20.285Z,77.38
2018-11-03T05:27:48.417Z,77.44
2018-11-03T05:30:16.533Z,76.72
2018-11-03T05:32:44.657Z,77.15
2018-11-03T05:35:12.781Z,77.13
2018-11-03T05:37:40.946Z,76.33
2018-11-03T05:40:09.159Z,77.27
2018-11-03T05:42:37.533Z,76.62
2018-11-03T05:45:05.807Z,77.17
2018-11-03T05:47:33.957Z,77.15
2018-11-03T05:50:02.097Z,76.49
2018-11-03T05:52:30.813Z,76.55
2018-11-03T05:54:58.981Z,76.74
2018-11-03T05:57:27.337Z,76.86
2018-11-03T05:59:57.256Z,76.92
2018-11-03T06:02:25.412Z,77.07
2018-11-03T06:04:53.671Z,76.53
2018-11-03T06:07:21.968Z,76.07
2018-11-03T06:09:50.204Z,76.50
2018-11-03T06:12:18.624Z,76.22
2018-11-03T06:14:46.800Z,75.96
2018-11-03T06:17:14.935Z,75.79
2018-11-03T06:19:43.108Z,76.47
2018-11-03T06:22:11.362Z,76.45
2018-11-03T06:24:39.482Z,77.49
2018-11-03T06:27:07.764Z,76.19
2018-11-03T06:29:36.246Z,77.14
2018-11-03T06:32:05.016Z,77.15
2018-11-03T06:34:33.232Z,76.97
2018-11-03T06:37:01.443Z,76.59
2018-11-03T06:39:29.738Z,76.17
2018-11-03T06:41:58.000Z,77.30
2018-11-03T06:44:26.169Z,76.70
2018-11-03T06:46:54.536Z,77.07
2018-11-03T06:49:23.787Z,77.07
2018-11-03T06:51:52.958Z,77.27
2018-11-03T06:54:21.564Z,76.95
2018-11-03T06:56:49.684Z,76.75
2018-11-03T06:59:18.269Z,77.49
2018-11-03T07:01:46.667Z,76.45
2018-11-03T07:04:15.329Z,77.28
2018-11-03T07:06:43.480Z,76.12
2018-11-03T07:09:12.675Z,76.14
2018-11-03T07:11:41.800Z,76.00
2018-11-03T07:14:10.091Z,75.18
2018-11-03T07:16:38.260Z,75.05
2018-11-03T07:19:06.458Z,73.86
2018-11-03T07:21:34.692Z,73.63
2018-11-03T07:24:02.847Z,73.74
2018-11-03T07:26:32.034Z,72.89
2018-11-03T07:29:01.462Z,73.44
2018-11-03T07:31:30.512Z,72.31
2018-11-03T07:33:58.604Z,73.21
2018-11-03T07:36:26.791Z,72.45
2018-11-03T07:38:55.023Z,72.22
2018-11-03T07:41:23.259Z,72.28
2018-11-03T07:43:51.324Z,70.96
2018-11-03T07:46:19.519Z,70.86
2018-11-03T07:48:47.845Z,70.79
2018-11-03T07:51:15.929Z,71.33
2018-11-03T07:53:44.107Z,71.28
2018-11-03T07:56:12.259Z,71.66
2018-11-03T07:58:40.385Z,71.18
2018-11-03T08:01:08.559Z,71.17
2018-11-03T08:03:36.764Z,70.91
2018-11-03T08:06:05.357Z,70.81
2018-11-03T08:08:33.454Z,70.50
2018-11-03T08:11:01.938Z,69.85
2018-11-03T08:13:30.486Z,68.94
2018-11-03T08:15:58.626Z,68.63
2018-11-03T08:18:26.773Z,68.24
2018-11-03T08:20:54.975Z,67.93
2018-11-03T08:23:23.129Z,68.00
2018-11-03T08:25:51.263Z,67.38
2018-11-03T08:28:19.474Z,68.26
2018-11-03T08:30:48.477Z,69.01
2018-11-03T08:33:16.684Z,69.07
2018-11-03T08:35:44.859Z,68.83
2018-11-03T08:38:13.022Z,68.98
2018-11-03T08:40:41.170Z,68.82
2018-11-03T08:43:09.377Z,69.20
2018-11-03T08:45:37.532Z,69.20
2018-11-03T08:48:06.368Z,69.38
2018-11-03T08:50:34.544Z,69.06
2018-11-03T08:53:02.770Z,67.94
2018-11-03T08:55:30.992Z,67.41
2018-11-03T08:57:59.160Z,67.61
2018-11-03T09:00:27.294Z,66.86
2018-11-03T09:02:55.444Z,66.53
2018-11-03T09:05:23.624Z,66.73
2018-11-03T09:07:51.762Z,66.39
2018-11-03T09:10:19.927Z,65.96
2018-11-03T09:12:48.072Z,66.63
2018-11-03T09:15:16.327Z,65.32
2018-11-03T09:17:45.610Z,64.12
2018-11-03T09:20:13.729Z,64.93
2018-11-03T09:22:41.965Z,65.14
2018-11-03T09:25:12.614Z,65.25
2018-11-03T09:27:41.804Z,66.01
2018-11-03T09:30:13.148Z,65.89
2018-11-03T09:32:41.431Z,67.73
2018-11-03T09:35:10.541Z,67.81
2018-11-03T09:37:38.750Z,68.37
2018-11-03T09:40:10.060Z,68.00
2018-11-03T09:42:38.225Z,67.81
2018-11-03T09:45:07.566Z,67.96
2018-11-03T09:47:35.729Z,67.96
2018-11-03T09:50:04.141Z,66.66
2018-11-03T09:52:32.277Z,65.97
2018-11-03T09:55:00.447Z,66.74
2018-11-03T09:57:28.643Z,66.97
2018-11-03T09:59:56.873Z,66.96
2018-11-03T10:02:25.153Z,66.37
2018-11-03T10:04:53.378Z,66.62
2018-11-03T10:07:21.535Z,66.28
2018-11-03T10:09:49.737Z,66.29
2018-11-03T10:12:17.974Z,66.89
2018-11-03T10:14:46.414Z,66.06
2018-11-03T10:17:14.655Z,66.62
2018-11-03T10:19:42.879Z,65.55
2018-11-03T10:22:11.235Z,65.40
2018-11-03T10:24:39.332Z,64.12
2018-11-03T10:27:07.204Z,64.35
2018-11-03T10:29:35.390Z,63.93
2018-11-03T10:32:03.674Z,64.12
2018-11-03T10:34:31.852Z,64.13
2018-11-03T10:37:00.071Z,64.72
2018-11-03T10:39:28.258Z,64.39
2018-11-03T10:41:56.616Z,65.04
2018-11-03T10:44:24.854Z,63.41
2018-11-03T10:46:53.030Z,62.78
2018-11-03T10:49:22.198Z,63.06
2018-11-03T10:51:50.378Z,62.84
2018-11-03T10:54:18.852Z,62.43
2018-11-03T10:56:47.042Z,61.63
2018-11-03T10:59:15.243Z,61.02
2018-11-03T11:01:49.005Z,59.89
2018-11-03T11:04:22.940Z,59.75
2018-11-03T11:06:56.721Z,58.43
2018-11-03T11:10:34.324Z,58.28
2018-11-03T11:13:15.013Z,57.36
2018-11-03T11:15:44.134Z,57.19
2018-11-03T11:18:13.074Z,56.10
2018-11-03T11:20:41.261Z,55.09
2018-11-03T11:23:09.519Z,53.92
2018-11-03T11:25:38.640Z,54.23
2018-11-03T11:28:07.123Z,54.36
2018-11-03T11:30:35.848Z,54.34
2018-11-03T11:33:05.714Z,54.12
2018-11-03T11:35:34.078Z,55.18
2018-11-03T11:38:02.343Z,55.16
2018-11-03T11:40:30.548Z,55.28
2018-11-03T11:42:59.294Z,55.66
2018-11-03T11:45:27.445Z,55.42
2018-11-03T11:47:55.603Z,53.50
2018-11-03T11:50:23.832Z,52.25
2018-11-03T11:52:52.224Z,51.20
2018-11-03T11:55:20.395Z,50.53
2018-11-03T11:57:49.070Z,49.19
2018-11-03T12:00:17.453Z,48.88
2018-11-03T12:02:46.367Z,48.36
2018-11-03T12:05:14.627Z,47.60
2018-11-03T12:07:43.538Z,46.46
2018-11-03T12:10:11.762Z,46.72
2018-11-03T12:12:39.966Z,46.49
2018-11-03T12:15:08.998Z,46.33
2018-11-03T12:17:37.222Z,46.80
2018-11-03T12:20:05.842Z,46.39
2018-11-03T12:22:34.038Z,46.85
2018-11-03T12:25:02.366Z,48.35
2018-11-03T12:27:30.604Z,50.11
2018-11-03T12:29:58.820Z,49.90
2018-11-03T12:32:27.010Z,48.69
2018-11-03T12:34:55.180Z,48.41
2018-11-03T12:37:23.430Z,48.38
2018-11-03T12:39:51.624Z,47.29
2018-11-03T12:42:19.796Z,47.25
2018-11-03T12:44:48.058Z,46.85
2018-11-03T12:47:16.213Z,47.17
2018-11-03T12:49:45.550Z,47.47
2018-11-03T12:52:13.717Z,47.27
2018-11-03T12:54:42.030Z,47.18
2018-11-03T12:57:10.185Z,49.22
2018-11-03T12:59:38.345Z,50.54
2018-11-03T13:02:06.807Z,50.89
2018-11-03T13:04:34.992Z,50.19
2018-11-03T13:07:03.921Z,49.38
2018-11-03T13:09:32.056Z,49.82
2018-11-03T13:12:00.579Z,50.53
2018-11-03T13:14:28.711Z,51.27
2018-11-03T13:16:56.856Z,51.47
2018-11-03T13:19:25.001Z,51.95
2018-11-03T13:21:53.175Z,51.12
2018-11-03T13:24:22.374Z,51.87
2018-11-03T13:26:50.586Z,50.86
2018-11-03T13:29:18.750Z,52.17
2018-11-03T13:31:46.908Z,52.11
2018-11-03T13:34:15.111Z,51.91
2018-11-03T13:36:43.414Z,52.29
2018-11-03T13:39:11.547Z,52.64
2018-11-03T13:41:40.661Z,53.52
2018-11-03T13:44:09.360Z,53.28
2018-11-03T13:46:37.566Z,54.94
2018-11-03T13:49:05.897Z,55.45
2018-11-03T13:51:34.041Z,55.35
2018-11-03T13:54:02.680Z,56.19
2018-11-03T13:56:31.057Z,56.59
2018-11-03T13:58:59.241Z,56.78
2018-11-03T14:01:27.448Z,56.46
2018-11-03T14:03:55.610Z,57.28
2018-11-03T14:06:24.063Z,56.25
2018-11-03T14:08:52.255Z,56.88
2018-11-03T14:11:20.584Z,56.58
2018-11-03T14:13:48.690Z,56.99
2018-11-03T14:16:16.907Z,56.79
2018-11-03T14:18:45.088Z,57.81
2018-11-03T14:21:13.289Z,56.96
2018-11-03T14:23:41.448Z,57.81
2018-11-03T14:26:09.689Z,57.81
2018-11-03T14:28:37.790Z,59.04
2018-11-03T14:31:06.001Z,58.64
2018-11-03T14:33:34.141Z,58.56
2018-11-03T14:36:03.023Z,59.28
2018-11-03T14:38:31.232Z,58.57
2018-11-03T14:40:59.414Z,59.72
2018-11-03T14:43:27.552Z,59.90
2018-11-03T14:45:55.762Z,60.02
2018-11-03T14:48:23.917Z,60.74
2018-11-03T14:50:52.190Z,60.90
2018-11-03T14:53:20.869Z,60.65
2018-11-03T14:55:49.143Z,61.43
2018-11-03T14:58:17.550Z,62.00
2018-11-03T15:00:45.738Z,62.81
2018-11-03T15:03:13.882Z,62.77
2018-11-03T15:05:42.013Z,62.95
2018-11-03T15:08:10.163Z,63.17
2018-11-03T15:10:38.352Z,63.29
2018-11-03T15:13:06.538Z,64.14
2018-11-03T15:15:34.719Z,64.01
2018-11-03T15:18:02.938Z,64.37
2018-11-03T15:20:31.249Z,64.55
2018-11-03T15:22:59.416Z,65.85
2018-11-03T15:25:27.636Z,65.78
2018-11-03T15:27:55.824Z,66.83
2018-11-03T15:30:23.994Z,67.30
2018-11-03T15:32:53.058Z,67.63
2018-11-03T15:35:21.209Z,67.29
2018-11-03T15:37:49.359Z,67.81
2018-11-03T15:40:17.617Z,68.90
2018-11-03T15:42:45.766Z,69.46
2018-11-03T15:45:15.986Z,69.38
2018-11-03T15:47:44.609Z,69.29
2018-11-03T15:50:13.658Z,70.33
2018-11-03T15:52:42.208Z,70.90
2018-11-03T15:55:10.345Z,70.98
2018-11-03T15:57:39.371Z,70.92
2018-11-03T16:00:11.926Z,72.19
2018-11-03T16:02:40.095Z,71.49
2018-11-03T16:05:08.336Z,72.06
2018-11-03T16:07:37.174Z,71.42
2018-11-03T16:10:08.179Z,71.94
2018-11-03T16:12:36.447Z,71.86
2018-11-03T16:15:05.115Z,71.46
2018-11-03T16:17:33.389Z,71.81
2018-11-03T16:20:03.100Z,72.28
2018-11-03T16:22:31.288Z,72.06
2018-11-03T16:24:59.464Z,71.92
2018-11-03T16:27:28.626Z,72.22
2018-11-03T16:29:56.811Z,72.10
2018-11-03T16:32:25.010Z,72.33
2018-11-03T16:34:53.142Z,73.18
2018-11-03T16:37:21.989Z,73.53
2018-11-03T16:39:51.136Z,72.83
2018-11-03T16:42:19.306Z,72.88
2018-11-03T16:44:48.200Z,73.20
2018-11-03T16:47:16.331Z,73.60
2018-11-03T16:49:44.448Z,73.30
2018-11-03T16:52:12.633Z,73.52
2018-11-03T16:54:40.842Z,73.38
2018-11-03T16:57:09.277Z,73.55
2018-11-03T16:59:37.416Z,74.13
2018-11-03T17:02:06.007Z,73.74
2018-11-03T17:04:34.214Z,74.02
2018-11-03T17:07:02.885Z,73.57
2018-11-03T17:09:31.034Z,73.85
2018-11-03T17:11:59.230Z,73.93
2018-11-03T17:14:27.991Z,74.16
2018-11-03T17:16:56.143Z,73.78
2018-11-03T17:19:24.330Z,74.49
2018-11-03T17:21:52.570Z,73.81
2018-11-03T17:24:20.988Z,73.82
2018-11-03T17:26:49.179Z,74.67
2018-11-03T17:29:17.339Z,74.60
2018-11-03T17:31:45.499Z,75.34
2018-11-03T17:34:15.071Z,75.28
2018-11-03T17:36:43.301Z,75.45
2018-11-03T17:39:11.690Z,75.72
2018-11-03T17:41:39.874Z,75.48
2018-11-03T17:44:08.239Z,75.46
2018-11-03T17:46:37.182Z,75.81
2018-11-03T17:49:05.674Z,75.86
2018-11-03T17:51:33.844Z,76.21
2018-11-03T17:54:02.112Z,76.76
2018-11-03T17:56:30.255Z,77.37
2018-11-03T17:58:58.497Z,76.55
2018-11-03T18:01:26.918Z,76.44
2018-11-03T18:03:55.011Z,76.92
2018-11-03T18:06:23.897Z,75.71
2018-11-03T18:08:52.045Z,76.56
2018-11-03T18:11:20.298Z,76.45
2018-11-03T18:13:48.487Z,75.90
2018-11-03T18:16:16.715Z,75.69
2018-11-03T18:18:44.857Z,75.05
2018-11-03T18:21:13.030Z,75.72
2018-11-03T18:23:41.461Z,75.41
2018-11-03T18:26:09.914Z,75.16
2018-11-03T18:28:38.116Z,74.59
2018-11-03T18:31:06.392Z,73.34
2018-11-03T18:33:34.909Z,73.36
2018-11-03T18:36:03.014Z,74.19
2018-11-03T18:38:31.170Z,74.11
2018-11-03T18:40:59.348Z,74.09
2018-11-03T18:43:28.823Z,73.63
2018-11-03T18:45:57.016Z,73.74
2018-11-03T18:48:25.203Z,74.15
2018-11-03T18:50:53.434Z,73.12
2018-11-03T18:53:21.667Z,73.03
2018-11-03T18:55:51.117Z,72.59
2018-11-03T18:58:19.292Z,72.85
2018-11-03T19:00:47.446Z,72.74
2018-11-03T19:03:15.703Z,72.48
2018-11-03T19:05:43.940Z,72.48
2018-11-03T19:08:12.109Z,73.50
2018-11-03T19:10:40.289Z,72.87
2018-11-03T19:13:09.088Z,73.07
2018-11-03T19:15:37.218Z,72.79
2018-11-03T19:18:05.644Z,73.26
2018-11-03T19:20:34.133Z,73.33
2018-11-03T19:23:02.557Z,72.50
2018-11-03T19:25:31.004Z,72.79
2018-11-03T19:27:59.485Z,72.80
2018-11-03T19:30:28.408Z,73.74
2018-11-03T19:32:57.434Z,73.57
2018-11-03T19:35:25.996Z,74.00
2018-11-03T19:37:55.344Z,73.13
2018-11-03T19:40:23.851Z,73.94
2018-11-03T19:42:52.309Z,73.37
2018-11-03T19:45:20.878Z,73.55
2018-11-03T19:47:49.290Z,73.93
2018-11-03T19:50:17.866Z,74.02
2018-11-03T19:52:46.524Z,74.27
2018-11-03T19:55:14.979Z,74.05
2018-11-03T19:57:43.197Z,74.47
2018-11-03T20:00:14.474Z,74.31
2018-11-03T20:02:42.762Z,75.21
2018-11-03T20:05:11.418Z,75.45
2018-11-03T20:07:41.902Z,75.08
2018-11-03T20:10:10.410Z,75.08
2018-11-03T20:12:38.593Z,74.54
2018-11-03T20:15:08.747Z,75.53
2018-11-03T20:17:36.938Z,75.17
2018-11-03T20:20:07.165Z,74.59
2018-11-03T20:22:35.318Z,75.30
2018-11-03T20:25:03.888Z,75.16
2018-11-03T20:27:32.050Z,76.10
2018-11-03T20:30:00.174Z,75.26
2018-11-03T20:32:28.369Z,75.80
2018-11-03T20:34:56.598Z,76.43
2018-11-03T20:37:24.759Z,76.44
2018-11-03T20:39:53.009Z,76.58
2018-11-03T20:42:21.164Z,76.35
2018-11-03T20:44:49.768Z,75.48
2018-11-03T20:47:17.951Z,76.55
2018-11-03T20:49:46.906Z,76.36
2018-11-03T20:52:15.117Z,76.33
2018-11-03T20:54:43.322Z,76.39
2018-11-03T20:57:11.480Z,76.18
2018-11-03T20:59:40.629Z,76.70
2018-11-03T21:02:08.844Z,77.19
2018-11-03T21:04:36.926Z,76.90
2018-11-03T21:07:05.376Z,76.41
2018-11-03T21:09:33.593Z,77.36
2018-11-03T21:12:03.053Z,76.38
2018-11-03T21:14:31.416Z,77.27
2018-11-03T21:17:00.703Z,76.94
2018-11-03T21:19:28.914Z,76.59
2018-11-03T21:21:57.086Z,76.69
2018-11-03T21:24:25.221Z,77.03
2018-11-03T21:26:53.392Z,76.92
2018-11-03T21:29:21.584Z,76.67
2018-11-03T21:31:49.795Z,76.86
2018-11-03T21:34:17.878Z,77.06
2018-11-03T21:36:46.092Z,76.55
2018-11-03T21:39:14.352Z,76.65
2018-11-03T21:41:43.562Z,77.56
2018-11-03T21:44:11.718Z,77.62
2018-11-03T21:46:39.946Z,77.98
2018-11-03T21:49:08.316Z,77.44
2018-11-03T21:51:36.495Z,78.32
2018-11-03T21:54:05.360Z,77.60
2018-11-03T21:56:33.607Z,77.88
2018-11-03T21:59:01.735Z,77.59
2018-11-03T22:01:29.852Z,78.30
2018-11-03T22:03:58.064Z,78.90
2018-11-03T22:06:26.348Z,78.77
2018-11-03T22:08:54.349Z,78.75
2018-11-03T22:11:22.501Z,78.78
2018-11-03T22:13:50.609Z,79.42
2018-11-03T22:16:18.769Z,79.96
2018-11-03T22:18:46.955Z,79.47
2018-11-03T22:21:15.089Z,79.57
2018-11-03T22:23:43.277Z,80.25
2018-11-03T22:26:11.676Z,79.54
2018-11-03T22:28:39.904Z,79.68
2018-11-03T22:31:08.076Z,79.36
2018-11-03T22:33:36.219Z,79.11
2018-11-03T22:36:05.129Z,79.14
2018-11-03T22:38:33.396Z,79.57
2018-11-03T22:41:01.537Z,79.81
2018-11-03T22:43:29.716Z,79.65
2018-11-03T22:45:57.870Z,79.73
2018-11-03T22:48:26.250Z,80.07
2018-11-03T22:50:54.483Z,79.82
2018-11-03T22:53:23.143Z,79.49
2018-11-03T22:55:51.561Z,80.67
2018-11-03T22:58:20.457Z,79.80
2018-11-03T23:00:54.476Z,79.85
2018-11-03T23:03:22.629Z,80.37
2018-11-03T23:05:50.753Z,80.54
2018-11-03T23:08:18.916Z,80.29
2018-11-03T23:10:47.163Z,80.62
2018-11-03T23:13:15.431Z,80.14
2018-11-03T23:15:43.712Z,80.76
2018-11-03T23:18:12.192Z,80.28
2018-11-03T23:20:40.885Z,80.19
2018-11-03T23:23:08.990Z,80.91
2018-11-03T23:25:37.132Z,80.87
2018-11-03T23:28:05.724Z,81.35
2018-11-03T23:30:34.447Z,81.32
2018-11-03T23:33:02.544Z,81.18
2018-11-03T23:35:31.361Z,81.16
2018-11-03T23:37:59.498Z,81.10
2018-11-03T23:40:27.694Z,81.31
2018-11-03T23:42:55.816Z,82.18
2018-11-03T23:45:24.070Z,82.15
2018-11-03T23:47:52.790Z,82.39
2018-11-03T23:50:20.968Z,82.59
2018-11-03T23:52:49.162Z,82.56
2018-11-03T23:55:17.309Z,82.61
2018-11-03T23:57:45.483Z,83.30
